EDLVEGSS

Guest
Details From EDLV - Niederrhein
To EGSS - London Stansted
Flight Number -
Tags Generated
Created
Modified
Stats Distance 220 nm / 408 km
Max Altitude 0 ft / 0 m
Waypoints 3
Social Downloads 2
Likes 0
Share VATSIM

Download

Looking for another format? Having issues loading an existing format? Contact us
Advertisement - Login to hide

Notes

Generated

Route

EDLV R2317 EGSS

ID Type Via Altitude Latitude Longitude Leg Dist Tot Dist Heading (true) Name
O EDLV APT - 0 ft / 0 m 51.60284˚ 6.12454˚ - 0 nm - -
R2317 FIX - 0 ft / 0 m 51.87508˚ 0.21993˚ 220 nm 220 nm 277° / 272° -
O EGSS APT - 0 ft / 0 m 51.87508˚ 0.21993˚ 0 nm 220 nm 32° / 32° -

Altitude Profile

Advertisement - Login to hide

Weather


0- 5 10 15 20 25 30 35+ Temperature / ° C

Clouds and Precipitation
Forecast for 2017-12-12 00:00 UTC. Updated 11 minutes ago

Ground ~20,000 ft ~40,000 ft Winds

EDLV

Details ICAO EDLV (NRN)
Name NIEDERRHEIN
Region Germany - Civil
Timezone Europe/Berlin (UTC+1.0)
Stats Elevation 106 ft / 32 m (AMSL)
Location 51.602455° 6.142132°
Runways 1
Magnetic Variation 1.604° E

METAR

EDLV 111920Z VRB05KT 4700 -RA BKN003 01/01 Q0978

Decode

TAF

TAF TAF EDLV 111700Z 1118/1218 06006KT 6000 BKN004 PROB30 TEMPO 1118/1120 SCT004 BKN040 BECMG 1118/1121 35008KT 3000 BR TEMPO 1120/1204 0800 SHSNRA BKN008TCU BECMG 1200/1203 27012KT BECMG 1204/1207 6000 BKN012 BECMG 1212/1215 BKN015

Decode

Departure Runways

ID Width Length Bearing (true) Bearing (mag) Surface Threshold Offset Overrun Length
09 148 ft / 45 m 7,981 ft / 2,433 m 92.02° 90.42° Asphalt 0 ft / 0 m 902 ft / 275 m
27 148 ft / 45 m 7,981 ft / 2,433 m 272.05° 270.45° Asphalt 0 ft / 0 m 902 ft / 275 m

EGSS

Details ICAO EGSS (STN)
Name London Stansted
Region United Kingdom
Timezone Europe/London (UTC+0.0)
Stats Elevation 348 ft / 106 m (AMSL)
Location 51.885097° 0.234962°
Runways 1
Magnetic Variation 0.364° W

METAR

EGSS 111920Z AUTO 32011KT 9999 NCD 00/M02 Q0991

Decode

TAF

TAF EGSS 111658Z 1118/1224 32010KT CAVOK BECMG 1121/1124 26006KT PROB30 1216/1221 6000 TEMPO 1221/1224 6000 -RA

Decode

Destination Runways

ID Width Length Bearing (true) Bearing (mag) Surface Threshold Offset Overrun Length
04 151 ft / 46 m 10,011 ft / 3,052 m 42.79° 43.15° Asphalt 994 ft / 303 m 0 ft / 0 m
22 151 ft / 46 m 10,011 ft / 3,052 m 222.81° 223.17° Asphalt 0 ft / 0 m 0 ft / 0 m

Approach Navaids

Runway Type Ident Frequency Range Bearing (true) Bearing (mag) Slope Elevation
04 Localiser ISED 110.50 MHz 18 nm / 33 km 42.80° 43.16° - 348 ft / 106 m (AMSL)
04 Glidescope ISED 110.50 MHz 10 nm / 19 km 42.80° 43.16° 3.00° 348 ft / 106 m (AMSL)
04 DME ISED 110.50 MHz 18 nm / 33 km - - - 348 ft / 106 m (AMSL)
22 Localiser ISX 110.50 MHz 18 nm / 33 km 222.80° 223.16° - 348 ft / 106 m (AMSL)
22 Glidescope ISX 110.50 MHz 10 nm / 19 km 222.80° 223.16° 3.00° 348 ft / 106 m (AMSL)
22 DME ISX 110.50 MHz 18 nm / 33 km - - - 348 ft / 106 m (AMSL)

Popular Alternatives